Time;durP1;ratioP1;P1;durP2;ratioP2;P2;SDS_P1;SDS_P2;PMS_P1;PMS_P2;Temp;Humidity;BMP_temperature;BMP_pressure;BME280_temperature;BME280_humidity;BME280_pressure;Samples;Min_cycle;Max_cycle;Signal;HPM_P1;HPM_P2
2022/11/29 00:02:22;;;;;;;27.65;11.75;;;3.50;99.90;;;;;;5150039;28;20048;-78
2022/11/29 00:05:34;;;;;;;23.30;11.63;;;3.40;99.90;;;;;;5174356;28;20046;-80
2022/11/29 00:08:08;;;;;;;23.25;10.35;;;3.50;99.90;;;;;;5149308;28;20044;-77
2022/11/29 00:10:42;;;;;;;35.20;13.98;;;3.50;99.90;;;;;;5182661;28;20024;-79
2022/11/29 00:13:13;;;;;;;31.55;12.32;;;3.40;99.90;;;;;;5181785;28;20038;-78
2022/11/29 00:15:52;;;;;;;27.42;11.65;;;3.50;99.90;;;;;;5181258;28;20023;-80
2022/11/29 00:18:25;;;;;;;20.58;10.45;;;3.40;99.90;;;;;;5181264;28;20032;-79
2022/11/29 00:21:04;;;;;;;26.70;11.73;;;3.40;99.90;;;;;;5182422;28;20030;-79
2022/11/29 00:23:35;;;;;;;27.33;12.68;;;3.30;99.90;;;;;;5164287;28;20096;-78
2022/11/29 00:26:07;;;;;;;25.77;11.82;;;3.40;99.90;;;;;;5147270;28;20054;-80
2022/11/29 00:28:43;;;;;;;23.73;9.50;;;3.40;99.90;;;;;;5180557;28;20026;-78
2022/11/29 00:31:23;;;;;;;28.23;12.43;;;3.40;99.90;;;;;;5178879;28;20457;-79
2022/11/29 00:33:58;;;;;;;26.45;11.98;;;3.40;99.90;;;;;;5174706;28;20052;-79
2022/11/29 00:36:30;;;;;;;26.67;12.05;;;3.40;99.90;;;;;;5161389;28;20042;-78
2022/11/29 00:39:05;;;;;;;25.67;12.23;;;3.40;99.90;;;;;;5146375;28;20034;-79
2022/11/29 00:41:39;;;;;;;28.00;11.80;;;3.40;99.90;;;;;;5177939;28;20030;-78
2022/11/29 00:44:11;;;;;;;28.50;13.70;;;3.40;99.90;;;;;;5179688;28;20026;-78
2022/11/29 00:46:43;;;;;;;25.13;11.23;;;3.50;99.90;;;;;;5155350;28;20328;-79
2022/11/29 00:49:20;;;;;;;28.92;11.25;;;3.60;99.90;;;;;;5179271;28;20026;-79
2022/11/29 00:51:51;;;;;;;28.60;11.90;;;3.50;99.90;;;;;;5175613;28;20045;-80
2022/11/29 00:54:25;;;;;;;27.63;11.85;;;3.40;99.90;;;;;;5142797;28;20030;-80
2022/11/29 00:56:56;;;;;;;31.70;13.38;;;3.50;99.90;;;;;;5175912;28;20020;-79
2022/11/29 00:59:30;;;;;;;35.40;12.98;;;3.60;99.90;;;;;;5175110;28;20037;-80
2022/11/29 01:02:01;;;;;;;29.60;13.73;;;3.60;99.90;;;;;;5173643;28;20026;-79
2022/11/29 01:04:32;;;;;;;31.13;13.18;;;3.50;99.90;;;;;;5166357;28;20287;-79
2022/11/29 01:07:06;;;;;;;32.78;14.32;;;3.50;99.90;;;;;;5175015;28;20026;-79
2022/11/29 01:09:40;;;;;;;41.13;14.20;;;3.50;99.90;;;;;;5158859;28;20032;-80
2022/11/29 01:12:14;;;;;;;25.10;12.18;;;3.50;99.90;;;;;;5126896;28;20038;-78
2022/11/29 01:14:45;;;;;;;19.27;9.57;;;3.40;99.90;;;;;;5158813;28;20038;-78
2022/11/29 01:17:16;;;;;;;27.38;11.55;;;3.30;99.90;;;;;;5180487;28;20022;-78
2022/11/29 01:19:52;;;;;;;17.45;9.00;;;3.30;99.90;;;;;;5160489;28;20060;-80
2022/11/29 01:22:24;;;;;;;31.20;12.63;;;3.10;99.90;;;;;;5195701;28;20028;-81
2022/11/29 01:24:58;;;;;;;36.60;12.75;;;3.20;99.90;;;;;;5194443;28;20018;-80
2022/11/29 01:27:29;;;;;;;32.50;13.45;;;3.20;99.90;;;;;;5183917;28;20041;-79
2022/11/29 01:30:00;;;;;;;27.63;12.73;;;3.30;99.90;;;;;;5175220;28;20034;-78
2022/11/29 01:32:33;;;;;;;32.72;13.20;;;3.40;99.90;;;;;;5175570;28;20026;-78
2022/11/29 01:35:06;;;;;;;20.73;9.23;;;3.30;99.90;;;;;;5141604;28;20045;-80
2022/11/29 01:37:39;;;;;;;23.05;10.60;;;3.30;99.90;;;;;;5166407;28;20037;-78
2022/11/29 01:40:14;;;;;;;27.17;10.97;;;3.30;99.90;;;;;;5175601;28;20042;-80
2022/11/29 01:42:48;;;;;;;21.30;11.02;;;3.40;99.90;;;;;;5174536;28;20260;-79
2022/11/29 01:45:35;;;;;;;24.15;10.02;;;3.30;99.90;;;;;;5193776;28;20195;-78
2022/11/29 01:48:10;;;;;;;22.75;10.70;;;3.40;99.90;;;;;;5194414;28;20030;-81
2022/11/29 01:50:42;;;;;;;26.95;10.27;;;3.40;99.90;;;;;;5162563;28;20038;-81
2022/11/29 01:53:19;;;;;;;22.05;10.70;;;3.30;99.90;;;;;;5195107;28;20028;-79
2022/11/29 01:55:59;;;;;;;26.77;11.00;;;3.30;99.90;;;;;;5194984;28;20021;-77
2022/11/29 01:58:32;;;;;;;21.40;9.65;;;3.20;99.90;;;;;;5175978;28;20049;-81
2022/11/29 02:01:03;;;;;;;27.75;11.25;;;3.20;99.90;;;;;;5171560;28;20044;-79
2022/11/29 02:03:35;;;;;;;26.25;11.65;;;3.20;99.90;;;;;;5170578;28;20032;-81
2022/11/29 02:06:14;;;;;;;22.90;10.95;;;3.20;99.90;;;;;;5163799;28;20050;-80
2022/11/29 02:08:51;;;;;;;20.70;10.13;;;3.10;99.90;;;;;;5158571;28;20030;-79
2022/11/29 02:11:43;;;;;;;20.08;9.10;;;3.10;99.90;;;;;;5172896;28;20030;-79
2022/11/29 02:14:33;;;;;;;24.88;11.63;;;3.00;99.90;;;;;;5162037;28;20029;-78
2022/11/29 02:17:14;;;;;;;23.95;10.55;;;3.10;99.90;;;;;;5162284;28;20033;-78
2022/11/29 02:20:06;;;;;;;22.65;11.13;;;3.10;99.90;;;;;;5178134;28;20034;-78
2022/11/29 02:22:58;;;;;;;28.02;11.90;;;3.00;99.90;;;;;;5160166;28;20311;-80
2022/11/29 02:25:38;;;;;;;22.63;10.05;;;3.10;99.90;;;;;;5163137;28;20030;-80
2022/11/29 02:28:43;;;;;;;21.05;9.85;;;3.20;99.90;;;;;;5169339;28;20180;-80
2022/11/29 02:31:42;;;;;;;24.98;11.43;;;3.10;99.90;;;;;;5161253;28;20370;-80
2022/11/29 02:34:40;;;;;;;18.70;8.68;;;3.20;99.90;;;;;;5175896;28;20045;-80
2022/11/29 02:37:30;;;;;;;22.13;9.85;;;3.20;99.90;;;;;;5155834;28;20247;-80
2022/11/29 02:40:22;;;;;;;20.30;9.77;;;3.20;99.90;;;;;;5155893;28;20033;-78
2022/11/29 02:43:24;;;;;;;15.88;9.40;;;3.30;99.90;;;;;;5144118;28;20034;-78
2022/11/29 02:46:01;;;;;;;21.50;9.40;;;3.20;99.90;;;;;;5137763;28;20042;-80
2022/11/29 02:48:45;;;;;;;21.70;9.43;;;3.20;99.90;;;;;;5154730;28;20061;-78
2022/11/29 02:51:24;;;;;;;25.02;10.10;;;3.10;99.90;;;;;;5173409;28;20030;-78
2022/11/29 02:54:28;;;;;;;25.50;9.82;;;3.10;99.90;;;;;;5162562;28;20042;-79
2022/11/29 02:57:24;;;;;;;24.90;11.18;;;3.10;99.90;;;;;;5157608;28;20305;-78
2022/11/29 03:00:04;;;;;;;18.90;9.18;;;3.10;99.90;;;;;;5156981;28;20558;-78
2022/11/29 03:02:46;;;;;;;25.65;10.23;;;3.00;99.90;;;;;;5125865;28;20038;-80
2022/11/29 03:05:46;;;;;;;24.33;11.10;;;3.00;99.90;;;;;;5150326;28;20049;-79
2022/11/29 03:08:33;;;;;;;22.45;11.63;;;3.00;99.90;;;;;;5151150;28;20038;-77
2022/11/29 03:11:25;;;;;;;21.23;10.43;;;3.00;99.90;;;;;;5162297;28;20027;-80
2022/11/29 03:14:14;;;;;;;19.70;9.20;;;3.00;99.90;;;;;;5161897;28;20036;-79
2022/11/29 03:16:54;;;;;;;20.00;10.93;;;3.00;99.90;;;;;;5181490;28;20037;-78
2022/11/29 03:19:40;;;;;;;25.77;10.43;;;2.90;99.90;;;;;;5165637;28;20208;-78
2022/11/29 03:22:32;;;;;;;19.10;10.27;;;3.00;99.90;;;;;;5142320;28;20042;-78
2022/11/29 03:25:45;;;;;;;18.83;9.68;;;3.00;99.90;;;;;;5168323;28;20026;-80
2022/11/29 03:28:32;;;;;;;22.40;11.43;;;3.00;99.90;;;;;;5164278;28;20034;-80
2022/11/29 03:31:35;;;;;;;23.88;11.45;;;3.00;99.90;;;;;;5164412;28;20034;-80
2022/11/29 03:34:42;;;;;;;28.42;11.32;;;3.00;99.90;;;;;;5108274;29;20503;-78
2022/11/29 03:37:21;;;;;;;23.30;10.27;;;3.00;99.90;;;;;;5103584;29;20518;-78
2022/11/29 03:40:06;;;;;;;20.45;9.95;;;3.10;99.90;;;;;;5108486;29;20046;-78
2022/11/29 03:42:56;;;;;;;24.08;11.23;;;3.00;99.90;;;;;;5087550;29;20395;-79
2022/11/29 03:45:38;;;;;;;25.02;10.50;;;3.00;99.90;;;;;;5102498;29;20043;-77
2022/11/29 03:48:36;;;;;;;20.17;10.18;;;3.10;99.90;;;;;;5110056;29;20205;-78
2022/11/29 03:51:20;;;;;;;20.92;10.65;;;3.10;99.90;;;;;;5106816;29;20057;-79
2022/11/29 03:54:05;;;;;;;19.50;10.13;;;3.20;99.90;;;;;;5111265;29;20031;-80
2022/11/29 03:56:40;;;;;;;24.67;10.68;;;3.30;99.90;;;;;;5114533;29;20043;-80
2022/11/29 03:59:26;;;;;;;20.25;10.18;;;3.30;99.90;;;;;;5104331;29;20048;-79
2022/11/29 04:02:18;;;;;;;21.60;10.00;;;3.20;99.90;;;;;;5103202;29;20043;-80
2022/11/29 04:05:22;;;;;;;20.10;10.23;;;3.20;99.90;;;;;;5090179;29;20071;-80
2022/11/29 04:08:02;;;;;;;20.15;11.52;;;3.10;99.90;;;;;;5101467;29;20038;-79
2022/11/29 04:10:57;;;;;;;18.80;8.43;;;3.10;99.90;;;;;;5130641;28;20275;-80
2022/11/29 04:13:44;;;;;;;21.45;11.25;;;3.10;99.90;;;;;;5164075;28;20060;-79
2022/11/29 04:16:31;;;;;;;20.02;9.75;;;3.10;99.90;;;;;;5157746;28;20035;-79
2022/11/29 04:19:09;;;;;;;27.70;10.07;;;3.10;99.90;;;;;;5164645;28;20035;-79
2022/11/29 04:21:49;;;;;;;22.45;9.13;;;3.20;99.90;;;;;;5150733;28;20790;-79
2022/11/29 04:24:43;;;;;;;23.55;10.85;;;3.20;99.90;;;;;;5152726;28;20025;-79
2022/11/29 04:27:37;;;;;;;20.70;10.20;;;3.20;99.90;;;;;;5130016;28;20030;-79
2022/11/29 04:30:14;;;;;;;23.42;10.45;;;3.30;99.90;;;;;;5163054;28;20093;-79
2022/11/29 04:33:37;;;;;;;22.13;9.70;;;3.30;99.90;;;;;;5141867;28;20030;-79
2022/11/29 04:36:26;;;;;;;22.33;10.20;;;3.20;99.90;;;;;;5162993;28;20030;-77
2022/11/29 04:39:24;;;;;;;22.40;10.00;;;3.20;99.90;;;;;;5175437;28;20029;-78
2022/11/29 04:42:15;;;;;;;19.20;10.05;;;3.10;99.90;;;;;;5166830;28;20051;-79
2022/11/29 04:45:07;;;;;;;19.73;8.52;;;3.00;99.90;;;;;;5184466;28;20038;-79
2022/11/29 04:47:55;;;;;;;20.35;9.43;;;2.90;99.90;;;;;;5181396;28;20018;-78
2022/11/29 04:50:43;;;;;;;23.90;10.18;;;2.90;99.90;;;;;;5180366;28;20030;-79
2022/11/29 04:53:45;;;;;;;17.67;9.82;;;2.90;99.90;;;;;;5159747;28;20163;-80
2022/11/29 04:56:31;;;;;;;18.75;8.82;;;2.90;99.90;;;;;;5164219;28;20316;-79
2022/11/29 04:59:16;;;;;;;21.58;10.88;;;2.80;99.90;;;;;;5194026;28;20026;-79
2022/11/29 05:02:08;;;;;;;;;;;2.90;99.90;;;;;;5164465;28;20235;-80
2022/11/29 05:05:10;;;;;;;21.00;11.20;;;2.80;99.90;;;;;;5170976;28;19910;-80
2022/11/29 05:08:08;;;;;;;22.05;9.80;;;2.80;99.90;;;;;;5163924;28;20041;-81
2022/11/29 05:11:19;;;;;;;19.67;7.68;;;2.80;99.90;;;;;;5181437;28;20029;-80
2022/11/29 05:14:30;;;;;;;23.58;12.00;;;2.80;99.90;;;;;;5180134;28;20201;-80
2022/11/29 05:17:22;;;;;;;20.63;10.02;;;2.80;99.90;;;;;;5144665;28;20027;-80
2022/11/29 05:20:14;;;;;;;22.35;11.50;;;2.70;99.90;;;;;;5177526;28;20022;-80
2022/11/29 05:23:06;;;;;;;24.95;10.73;;;2.80;99.90;;;;;;5178779;28;20032;-80
2022/11/29 05:26:22;;;;;;;25.17;11.48;;;2.80;99.90;;;;;;5177161;28;20026;-79
2022/11/29 05:29:07;;;;;;;21.20;10.98;;;2.80;99.90;;;;;;5155756;28;20215;-80
2022/11/29 05:31:53;;;;;;;25.88;12.68;;;2.80;99.90;;;;;;5164223;28;20531;-80
2022/11/29 05:34:24;;;;;;;31.75;11.80;;;2.80;99.90;;;;;;5172486;28;20038;-80
2022/11/29 05:37:04;;;;;;;25.15;11.68;;;2.80;99.90;;;;;;5174478;28;20034;-80
2022/11/29 05:40:19;;;;;;;23.73;11.73;;;2.80;99.90;;;;;;5175066;28;20060;-79
2022/11/29 05:43:09;;;;;;;240.93;142.88;;;2.80;99.90;;;;;;5152675;28;20037;-79
2022/11/29 05:45:56;;;;;;;1999.90;999.90;;;2.80;99.90;;;;;;5158157;28;20033;-80
2022/11/29 05:48:43;;;;;;;95.30;64.78;;;2.70;99.90;;;;;;5162868;28;20392;-79
2022/11/29 05:51:39;;;;;;;184.45;141.60;;;2.70;99.90;;;;;;5156848;28;20038;-79
2022/11/29 05:54:42;;;;;;;692.65;469.67;;;2.70;99.90;;;;;;5157027;28;20039;-79
2022/11/29 05:57:27;;;;;;;187.13;139.60;;;2.70;99.90;;;;;;5173903;28;20038;-80
2022/11/29 06:00:02;;;;;;;248.60;189.40;;;2.60;99.90;;;;;;5157651;28;20026;-79
2022/11/29 06:02:47;;;;;;;;;;;2.60;99.90;;;;;;5157932;28;20048;-79
2022/11/29 06:05:38;;;;;;;52.90;34.08;;;2.70;99.90;;;;;;5165435;28;20467;-80
2022/11/29 06:08:29;;;;;;;76.95;57.65;;;2.70;99.90;;;;;;5174580;28;20032;-79
2022/11/29 06:11:12;;;;;;;106.25;66.07;;;2.60;99.90;;;;;;5173941;28;20038;-80
2022/11/29 06:14:12;;;;;;;75.38;41.50;;;2.50;99.90;;;;;;5152415;28;20396;-80
2022/11/29 06:17:01;;;;;;;51.90;30.00;;;2.50;99.90;;;;;;5154585;28;20035;-80
2022/11/29 06:19:52;;;;;;;73.50;44.03;;;2.50;99.90;;;;;;5153161;28;20418;-79
2022/11/29 06:22:26;;;;;;;52.47;28.67;;;2.40;99.90;;;;;;5174366;28;20032;-80
2022/11/29 06:25:00;;;;;;;145.57;98.68;;;2.50;99.90;;;;;;5156849;28;20109;-79
2022/11/29 06:27:49;;;;;;;37.47;21.05;;;2.50;99.90;;;;;;5156172;28;20042;-79
2022/11/29 06:30:25;;;;;;;36.15;19.10;;;2.50;99.90;;;;;;5162337;28;20033;-79
2022/11/29 06:33:20;;;;;;;42.10;19.65;;;2.50;99.90;;;;;;5171313;28;20182;-80
2022/11/29 06:36:36;;;;;;;28.02;14.93;;;2.50;99.90;;;;;;5134342;28;20030;-79
2022/11/29 06:39:09;;;;;;;36.13;20.52;;;2.40;99.90;;;;;;5166018;28;20318;-80
2022/11/29 06:41:40;;;;;;;40.33;19.13;;;2.40;99.90;;;;;;5173870;28;20042;-79
2022/11/29 06:44:14;;;;;;;58.95;32.10;;;2.40;99.90;;;;;;5158821;28;20028;-79
2022/11/29 06:46:47;;;;;;;35.05;19.83;;;2.50;99.90;;;;;;5172712;28;20339;-80
2022/11/29 06:49:38;;;;;;;111.07;62.85;;;2.50;99.90;;;;;;5156107;28;20023;-79
2022/11/29 06:52:17;;;;;;;142.63;93.15;;;2.50;99.90;;;;;;5170596;28;20331;-79
2022/11/29 06:55:04;;;;;;;156.07;106.88;;;2.50;99.90;;;;;;5172296;28;20046;-79
2022/11/29 06:57:50;;;;;;;93.47;52.72;;;2.60;99.90;;;;;;5163913;28;20409;-79
2022/11/29 07:00:27;;;;;;;104.32;52.55;;;2.60;99.90;;;;;;5153115;28;20031;-80
2022/11/29 07:03:48;;;;;;;222.70;140.68;;;2.60;99.90;;;;;;5166495;28;20060;-79
2022/11/29 07:06:24;;;;;;;552.15;284.00;;;2.60;99.90;;;;;;5182316;28;20041;-79
2022/11/29 07:08:59;;;;;;;147.65;95.22;;;2.60;99.90;;;;;;5174578;28;20034;-80
2022/11/29 07:11:31;;;;;;;119.57;82.57;;;2.70;99.90;;;;;;5164465;28;20025;-79
2022/11/29 07:14:03;;;;;;;85.18;59.10;;;2.80;99.90;;;;;;5160370;28;20022;-80
2022/11/29 07:16:52;;;;;;;117.85;81.88;;;2.80;99.90;;;;;;5171874;28;20030;-79
2022/11/29 07:20:01;;;;;;;61.00;35.25;;;2.90;99.90;;;;;;5174464;28;20216;-80
2022/11/29 07:23:15;;;;;;;58.10;37.25;;;2.90;99.90;;;;;;5182307;28;20040;-80
2022/11/29 07:26:25;;;;;;;50.38;25.42;;;3.00;99.90;;;;;;5156752;28;20025;-79
2022/11/29 07:29:05;;;;;;;56.92;34.25;;;3.00;99.90;;;;;;5092092;29;20042;-79
2022/11/29 07:31:47;;;;;;;60.60;37.28;;;3.20;99.90;;;;;;5092472;29;20131;-80
2022/11/29 07:34:38;;;;;;;42.88;24.20;;;3.00;99.90;;;;;;5091485;29;20040;-80
2022/11/29 07:37:30;;;;;;;56.97;30.77;;;3.00;99.90;;;;;;5093369;29;20024;-80
2022/11/29 07:40:24;;;;;;;93.72;59.47;;;3.10;99.90;;;;;;5092754;29;20048;-80
2022/11/29 07:43:30;;;;;;;52.03;32.53;;;3.20;99.90;;;;;;5076128;29;20036;-80
2022/11/29 07:46:04;;;;;;;69.55;47.40;;;3.10;99.90;;;;;;5088799;29;20053;-80
2022/11/29 07:48:35;;;;;;;37.65;18.98;;;3.20;99.90;;;;;;5091929;29;20034;-79
2022/11/29 07:51:08;;;;;;;81.25;51.53;;;3.30;99.90;;;;;;5092115;29;20119;-80
2022/11/29 07:53:46;;;;;;;65.60;38.20;;;3.30;99.90;;;;;;5091993;29;20040;-80
2022/11/29 07:56:21;;;;;;;33.47;19.85;;;3.30;99.90;;;;;;5107334;29;20020;-81
2022/11/29 07:58:53;;;;;;;57.20;36.95;;;3.30;99.90;;;;;;5099365;29;20446;-80
2022/11/29 08:01:24;;;;;;;65.97;39.53;;;3.40;99.90;;;;;;5077674;29;20048;-79
2022/11/29 08:03:55;;;;;;;21.23;9.65;;;3.50;99.90;;;;;;5094994;29;20043;-80
2022/11/29 08:06:26;;;;;;;33.78;17.42;;;3.50;99.90;;;;;;5132396;28;20412;-80
2022/11/29 08:09:04;;;;;;;35.42;18.05;;;3.50;99.90;;;;;;5159427;28;20023;-78
2022/11/29 08:11:38;;;;;;;31.70;15.02;;;3.60;99.90;;;;;;5141337;28;20026;-79
2022/11/29 08:14:12;;;;;;;;;;;3.70;99.90;;;;;;5160458;28;20092;-80
2022/11/29 08:16:46;;;;;;;23.63;15.70;;;3.60;99.90;;;;;;5182267;28;19902;-79
2022/11/29 08:19:17;;;;;;;85.13;49.47;;;3.70;99.90;;;;;;5179031;28;20040;-79
2022/11/29 08:21:49;;;;;;;37.90;19.65;;;3.70;99.90;;;;;;5178732;28;20039;-80
2022/11/29 08:24:21;;;;;;;35.47;21.50;;;3.80;99.90;;;;;;5163222;28;20369;-80
2022/11/29 08:26:52;;;;;;;50.17;32.83;;;3.70;99.90;;;;;;5179298;28;20037;-79
2022/11/29 08:29:24;;;;;;;26.30;13.85;;;3.90;99.90;;;;;;5179404;28;20030;-79
2022/11/29 08:31:55;;;;;;;32.53;16.70;;;3.80;99.90;;;;;;5177202;28;20026;-79
2022/11/29 08:34:29;;;;;;;24.20;10.93;;;3.80;99.90;;;;;;5182775;28;20026;-79
2022/11/29 08:37:02;;;;;;;24.27;13.57;;;3.80;99.90;;;;;;5178744;28;20033;-79
2022/11/29 08:39:36;;;;;;;20.35;9.63;;;3.80;99.90;;;;;;5155647;28;20294;-79
2022/11/29 08:42:07;;;;;;;25.87;11.57;;;3.80;99.90;;;;;;5180111;28;20038;-79
2022/11/29 08:44:39;;;;;;;19.17;9.20;;;3.90;99.90;;;;;;5176339;28;20274;-79
2022/11/29 08:50:00;;;;;;;27.83;13.82;;;3.80;99.90;;;;;;5157737;28;20042;-79
2022/11/29 08:55:30;;;;;;;24.52;13.80;;;4.00;99.90;;;;;;5172814;28;20030;-79
2022/11/29 08:58:09;;;;;;;28.17;13.77;;;4.00;99.90;;;;;;5169811;28;20037;-79
2022/11/29 09:00:45;;;;;;;27.13;12.27;;;4.10;99.90;;;;;;5176469;28;20026;-79
2022/11/29 09:06:14;;;;;;;29.83;13.95;;;4.10;99.90;;;;;;5169401;28;20060;-79
2022/11/29 09:08:46;;;;;;;47.80;22.52;;;4.10;99.90;;;;;;5166008;28;20034;-79
2022/11/29 09:11:20;;;;;;;50.05;28.20;;;4.00;99.90;;;;;;5153517;28;20050;-79
2022/11/29 09:13:55;;;;;;;153.98;89.32;;;3.80;99.90;;;;;;5173684;28;20052;-79
2022/11/29 09:16:31;;;;;;;71.93;42.88;;;3.90;99.90;;;;;;5163104;28;20021;-79
2022/11/29 09:19:03;;;;;;;133.77;83.53;;;3.90;99.90;;;;;;5177861;28;20040;-79
2022/11/29 09:21:35;;;;;;;253.65;155.40;;;3.90;99.90;;;;;;5160455;28;20037;-79
2022/11/29 09:24:08;;;;;;;476.55;301.65;;;3.90;99.90;;;;;;5161216;28;20046;-79
2022/11/29 09:26:45;;;;;;;164.50;96.22;;;3.90;99.90;;;;;;5180471;28;20034;-79
2022/11/29 09:29:17;;;;;;;591.20;325.23;;;3.90;99.90;;;;;;5161740;28;20040;-79
2022/11/29 09:31:48;;;;;;;296.73;178.48;;;4.00;99.90;;;;;;5166404;28;20030;-78
2022/11/29 09:34:24;;;;;;;71.38;39.33;;;3.90;99.90;;;;;;5187481;28;20033;-78
2022/11/29 09:36:58;;;;;;;251.40;154.30;;;4.00;99.90;;;;;;5190409;28;20040;-78
2022/11/29 09:39:29;;;;;;;277.40;170.23;;;4.10;99.90;;;;;;5185205;28;20031;-76
2022/11/29 09:42:26;;;;;;;522.70;256.40;;;4.10;99.90;;;;;;5159518;28;20031;-77
2022/11/29 09:45:02;;;;;;;559.22;276.20;;;4.00;99.90;;;;;;5163234;28;20041;-77
2022/11/29 09:47:51;;;;;;;173.65;82.95;;;3.90;99.90;;;;;;5182599;28;20040;-78
2022/11/29 09:50:33;;;;;;;160.90;77.55;;;4.00;99.90;;;;;;5179456;28;20295;-78
2022/11/29 09:53:43;;;;;;;226.48;102.20;;;4.20;99.90;;;;;;5162735;28;20026;-78
2022/11/29 09:56:26;;;;;;;197.00;96.15;;;4.20;99.90;;;;;;5198693;28;20018;-77
2022/11/29 09:59:14;;;;;;;159.02;81.28;;;4.40;99.90;;;;;;5180389;28;20042;-78
2022/11/29 10:01:52;;;;;;;130.27;61.40;;;4.40;99.90;;;;;;5180043;28;20046;-76
2022/11/29 10:04:39;;;;;;;392.25;229.25;;;4.50;99.90;;;;;;5170929;28;20033;-79
2022/11/29 10:07:37;;;;;;;73.25;32.45;;;4.70;99.90;;;;;;5157563;28;20310;-78
2022/11/29 10:10:24;;;;;;;194.13;98.85;;;4.70;99.90;;;;;;5173961;28;20018;-78
2022/11/29 10:13:03;;;;;;;163.07;69.63;;;4.80;99.90;;;;;;5165805;28;20036;-78
2022/11/29 10:15:42;;;;;;;69.00;30.88;;;4.80;99.90;;;;;;5158381;28;20029;-78
2022/11/29 10:18:37;;;;;;;70.05;30.80;;;4.90;99.90;;;;;;5175928;28;20029;-78
2022/11/29 10:21:20;;;;;;;;;;;5.00;99.90;;;;;;5163960;28;20030;-78
2022/11/29 10:24:04;;;;;;;49.97;25.13;;;5.00;99.90;;;;;;5173192;28;19924;-78
2022/11/29 10:26:36;;;;;;;77.97;36.70;;;5.10;99.90;;;;;;5173162;28;20595;-78
2022/11/29 10:29:12;;;;;;;285.60;139.57;;;5.20;99.90;;;;;;5170859;28;20033;-77
2022/11/29 10:31:48;;;;;;;87.88;44.35;;;5.40;99.90;;;;;;5171617;28;20494;-78
2022/11/29 10:34:24;;;;;;;39.97;24.73;;;5.50;99.90;;;;;;5168595;28;20022;-77
2022/11/29 10:37:01;;;;;;;108.90;69.25;;;5.40;99.90;;;;;;5167845;28;20022;-76
2022/11/29 10:39:38;;;;;;;106.20;84.85;;;5.20;99.90;;;;;;5167504;28;20030;-77
2022/11/29 10:45:28;;;;;;;41.15;30.60;;;5.30;99.90;;;;;;5169876;28;20042;-77
2022/11/29 10:48:10;;;;;;;33.60;23.55;;;5.30;99.90;;;;;;5153951;28;20029;-77
2022/11/29 10:50:43;;;;;;;88.22;70.47;;;5.30;99.90;;;;;;5171025;28;20249;-77
2022/11/29 10:53:17;;;;;;;447.55;362.35;;;5.60;99.90;;;;;;5154593;28;20028;-77
2022/11/29 10:56:10;;;;;;;65.10;43.50;;;5.70;99.90;;;;;;5157980;28;20045;-76
2022/11/29 10:58:55;;;;;;;96.63;71.72;;;5.40;99.90;;;;;;5152717;28;20312;-76
2022/11/29 11:01:27;;;;;;;34.40;22.90;;;5.20;99.90;;;;;;5172553;28;20050;-76
2022/11/29 11:04:06;;;;;;;52.78;42.92;;;5.30;99.90;;;;;;5166350;28;20028;-78
2022/11/29 11:06:55;;;;;;;77.75;59.85;;;5.10;99.90;;;;;;5140853;28;20057;-77
2022/11/29 11:09:50;;;;;;;37.45;25.58;;;5.20;99.90;;;;;;5169840;28;20042;-78
2022/11/29 11:12:35;;;;;;;28.42;17.77;;;5.10;99.90;;;;;;5171403;28;20026;-79
2022/11/29 11:15:27;;;;;;;21.15;12.70;;;5.10;99.90;;;;;;5171391;28;20372;-79
2022/11/29 11:18:03;;;;;;;21.80;12.05;;;5.20;99.90;;;;;;5154138;28;20041;-77
2022/11/29 11:20:39;;;;;;;17.15;7.97;;;5.30;99.90;;;;;;5154110;28;20064;-78
2022/11/29 11:23:27;;;;;;;16.27;9.13;;;5.40;99.90;;;;;;5171427;28;20033;-79
2022/11/29 11:26:05;;;;;;;19.80;9.35;;;5.30;99.90;;;;;;5169987;28;20205;-76
2022/11/29 11:28:48;;;;;;;19.60;8.13;;;5.30;99.90;;;;;;5168464;28;20038;-77
2022/11/29 11:31:38;;;;;;;15.45;8.32;;;5.40;99.90;;;;;;5171532;28;20026;-79
2022/11/29 11:34:36;;;;;;;16.35;9.27;;;5.50;99.90;;;;;;5154225;28;20026;-79
2022/11/29 11:37:28;;;;;;;13.27;7.18;;;5.50;99.90;;;;;;5171527;28;20073;-78
2022/11/29 11:40:19;;;;;;;18.40;9.63;;;5.50;99.90;;;;;;5169833;28;20197;-79
2022/11/29 11:42:54;;;;;;;15.18;9.25;;;5.50;99.90;;;;;;5170876;28;20046;-79
2022/11/29 11:45:34;;;;;;;15.68;9.32;;;5.60;99.90;;;;;;5162107;28;20251;-79
2022/11/29 11:48:14;;;;;;;14.30;7.53;;;5.70;99.90;;;;;;5139375;28;20044;-77
2022/11/29 11:50:57;;;;;;;13.68;7.60;;;5.70;99.90;;;;;;5168504;28;20028;-77
2022/11/29 11:53:36;;;;;;;10.43;5.78;;;5.60;99.90;;;;;;5143929;28;20038;-77
2022/11/29 11:56:12;;;;;;;10.73;6.90;;;5.60;99.90;;;;;;5165028;28;20038;-77
2022/11/29 11:58:54;;;;;;;12.63;8.15;;;5.70;99.90;;;;;;5170832;28;20026;-77
2022/11/29 12:01:26;;;;;;;13.32;6.78;;;5.70;99.90;;;;;;5152428;28;20034;-76
2022/11/29 12:04:03;;;;;;;18.08;8.60;;;5.60;99.90;;;;;;5156632;28;20427;-75
2022/11/29 12:06:37;;;;;;;9.98;5.40;;;5.70;99.90;;;;;;5150742;28;20037;-77
2022/11/29 12:09:28;;;;;;;12.27;7.57;;;5.60;99.90;;;;;;5170823;28;20022;-77
2022/11/29 12:12:05;;;;;;;12.90;6.90;;;5.60;99.90;;;;;;5170312;28;20042;-76
2022/11/29 12:14:49;;;;;;;14.38;7.15;;;5.80;99.90;;;;;;5170959;28;20033;-78
2022/11/29 12:17:54;;;;;;;12.05;7.20;;;5.80;99.90;;;;;;5153910;28;20517;-78
2022/11/29 12:20:42;;;;;;;9.40;6.15;;;5.70;99.90;;;;;;5153272;28;20027;-78
2022/11/29 12:23:13;;;;;;;10.68;6.30;;;5.80;99.90;;;;;;5170719;28;20050;-79
2022/11/29 12:26:01;;;;;;;10.73;6.43;;;5.90;99.90;;;;;;5169824;28;20026;-79
2022/11/29 12:28:37;;;;;;;7.53;4.70;;;5.70;99.90;;;;;;5172666;28;20026;-78
2022/11/29 12:31:29;;;;;;;11.50;5.82;;;5.80;99.90;;;;;;5171408;28;20042;-78
2022/11/29 12:34:36;;;;;;;8.65;5.20;;;5.90;99.90;;;;;;5149722;28;20072;-79
2022/11/29 12:37:23;;;;;;;185.63;82.07;;;6.00;99.90;;;;;;5171006;28;20022;-78
2022/11/29 12:39:57;;;;;;;165.07;75.00;;;6.00;99.90;;;;;;5171272;28;20033;-79
2022/11/29 12:42:54;;;;;;;91.68;49.25;;;6.00;99.90;;;;;;5164337;28;20041;-78
2022/11/29 12:46:13;;;;;;;215.73;105.05;;;6.00;99.90;;;;;;5160244;28;20043;-79
2022/11/29 12:48:59;;;;;;;78.55;48.55;;;6.00;99.90;;;;;;5131619;29;20038;-79
2022/11/29 12:51:58;;;;;;;54.25;34.85;;;6.10;99.90;;;;;;5117058;29;20356;-79
2022/11/29 12:54:45;;;;;;;108.28;68.82;;;5.90;99.90;;;;;;5133050;29;20217;-79
2022/11/29 12:57:24;;;;;;;131.55;72.28;;;5.90;99.90;;;;;;5115275;29;20350;-79
2022/11/29 13:00:10;;;;;;;61.55;28.40;;;5.90;99.90;;;;;;5132973;28;20031;-79
2022/11/29 13:03:05;;;;;;;314.73;190.63;;;6.10;99.90;;;;;;5131299;28;20355;-79
2022/11/29 13:05:59;;;;;;;;;;;6.40;99.90;;;;;;5120654;28;20067;-77
2022/11/29 13:08:33;;;;;;;131.48;65.38;;;6.60;99.90;;;;;;5131610;29;19930;-77
2022/11/29 13:11:28;;;;;;;169.90;91.90;;;6.50;99.90;;;;;;5132581;29;20030;-79
2022/11/29 13:14:14;;;;;;;133.07;62.80;;;6.30;99.90;;;;;;5119826;29;20079;-79
2022/11/29 13:16:53;;;;;;;20.23;13.18;;;6.30;99.90;;;;;;5115383;28;20049;-77
2022/11/29 13:19:27;;;;;;;35.58;19.75;;;6.00;99.90;;;;;;5118529;29;20252;-78
2022/11/29 13:22:14;;;;;;;49.28;28.98;;;5.80;99.90;;;;;;5138187;28;20082;-78
2022/11/29 13:24:56;;;;;;;20.35;14.80;;;5.70;99.90;;;;;;5166450;28;20053;-78
2022/11/29 13:27:35;;;;;;;14.48;11.07;;;5.70;99.90;;;;;;5174267;28;20023;-79
2022/11/29 13:30:07;;;;;;;16.85;11.27;;;5.60;99.90;;;;;;5152927;28;20488;-79
2022/11/29 13:32:55;;;;;;;15.35;11.85;;;5.70;99.90;;;;;;5127843;28;20045;-78
2022/11/29 13:35:31;;;;;;;15.23;7.90;;;5.70;99.90;;;;;;5147006;28;20038;-77
2022/11/29 13:38:17;;;;;;;10.23;5.85;;;5.80;99.90;;;;;;5155844;28;20345;-77
2022/11/29 13:41:24;;;;;;;8.60;5.57;;;5.90;99.90;;;;;;5173124;28;20030;-77
2022/11/29 13:44:15;;;;;;;8.38;6.03;;;5.80;99.90;;;;;;5169791;28;20045;-79
2022/11/29 13:46:56;;;;;;;11.38;6.57;;;5.80;99.90;;;;;;5162902;28;20043;-78
2022/11/29 13:49:55;;;;;;;14.23;7.30;;;5.80;99.90;;;;;;5155943;28;20052;-77
2022/11/29 13:52:32;;;;;;;11.35;7.32;;;5.80;99.90;;;;;;5168688;28;20014;-78
2022/11/29 13:55:28;;;;;;;13.15;7.57;;;5.60;99.90;;;;;;5166060;28;20022;-78
2022/11/29 13:58:14;;;;;;;13.52;7.32;;;5.60;99.90;;;;;;5166431;28;20201;-78
2022/11/29 14:00:50;;;;;;;12.25;6.30;;;5.50;99.90;;;;;;5154360;28;20046;-78
2022/11/29 14:03:27;;;;;;;10.15;6.38;;;5.40;99.90;;;;;;5181283;28;20049;-78
2022/11/29 14:06:01;;;;;;;11.52;6.97;;;5.40;99.90;;;;;;5159760;28;20056;-78
2022/11/29 14:08:36;;;;;;;11.13;6.65;;;5.30;99.90;;;;;;5179701;28;20048;-78
2022/11/29 14:11:10;;;;;;;10.30;6.50;;;5.30;99.90;;;;;;5167680;28;20034;-78
2022/11/29 14:13:56;;;;;;;11.43;6.70;;;5.20;99.90;;;;;;5169840;28;20042;-78